< < Back
Terminal Aerodrome Forecast


Current Version              Previous Versions:   1  2  3  4  5  6  7  8  9  

Terminal Aerodrome Forecast

831
FTUS42 KGSP 242300 RRA
TAFAVL
TAF
KAVL 242341Z 2500/2524 16006KT P6SM SCT250
     FM250500 16003KT P6SM BKN110
     FM251000 17004KT 3SM BR VCSH BKN045 OVC060
     FM251100 17004KT 2SM -SHRA BR SCT027 OVC045
     FM251300 17006G18KT P6SM -SHRA OVC027 PROB30 2514/2518 4SM TSRA
      OVC017CB
     FM251800 30013G23KT P6SM -SHRA BKN040=



Latest METAR

364
SAUS70 KWBC 250700 RRE
MTRAVL
METAR KAVL 250654Z AUTO 24003KT 10SM CLR 10/06 A2996 RMK AO2 SLP130
T01000061


USA.gov is the U.S. government's official web portal to all federal, state and local government web resources and services.